createdAt,value
2024-02-20T00:06:53.399Z,7.38
2024-02-20T00:13:55.003Z,7.28
2024-02-20T00:20:56.442Z,7.40
2024-02-20T00:27:57.918Z,7.29
2024-02-20T01:39:09.102Z,7.10
2024-02-20T01:46:10.700Z,7.04
2024-02-20T01:53:12.892Z,7.18
2024-02-20T02:00:14.680Z,7.22
2024-02-20T02:07:16.317Z,7.22
2024-02-20T02:14:18.013Z,7.25
2024-02-20T02:21:19.921Z,7.17
2024-02-20T02:28:22.114Z,7.15
2024-02-20T03:41:43.783Z,6.89
2024-02-20T03:48:45.487Z,6.88
2024-02-20T03:55:47.150Z,6.96
2024-02-20T04:02:48.746Z,6.92
2024-02-20T04:09:50.338Z,6.76
2024-02-20T04:16:52.896Z,6.81
2024-02-20T04:23:54.507Z,6.78
2024-02-20T04:30:56.099Z,6.72
2024-02-20T05:40:13.822Z,6.19
2024-02-20T05:47:15.518Z,6.15
2024-02-20T05:54:17.196Z,6.16
2024-02-20T06:01:19.240Z,6.06
2024-02-20T06:08:20.972Z,6.18
2024-02-20T06:15:25.171Z,6.06
2024-02-20T06:22:26.840Z,6.17
2024-02-20T06:29:28.833Z,6.23
2024-02-20T06:36:30.476Z,6.30
2024-02-20T06:43:32.199Z,6.12
2024-02-20T06:50:33.860Z,6.02
2024-02-20T06:57:36.478Z,6.10
2024-02-20T07:04:40.301Z,5.99
2024-02-20T07:11:48.146Z,6.04
2024-02-20T07:18:49.792Z,6.13
2024-02-20T07:25:51.450Z,6.00
2024-02-20T07:32:53.274Z,6.11
2024-02-20T07:39:55.020Z,6.19
2024-02-20T07:46:56.578Z,6.02
2024-02-20T07:53:58.221Z,6.17
2024-02-20T08:01:00.036Z,6.19
2024-02-20T08:08:02.025Z,6.25
2024-02-20T08:15:03.989Z,6.39
2024-02-20T08:22:05.684Z,6.48
2024-02-20T08:29:09.437Z,6.57
2024-02-20T09:42:10.585Z,6.08
2024-02-20T09:49:12.404Z,6.24
2024-02-20T09:56:15.422Z,6.40
2024-02-20T10:03:17.074Z,6.39
2024-02-20T10:10:18.674Z,6.41
2024-02-20T10:17:20.651Z,6.30
2024-02-20T10:24:27.967Z,6.70
2024-02-20T10:31:36.225Z,6.75
2024-02-20T10:38:40.787Z,6.78
2024-02-20T10:45:45.822Z,6.96
2024-02-20T10:52:47.513Z,6.96
2024-02-20T10:59:51.080Z,7.30
2024-02-20T11:06:52.704Z,7.25
2024-02-20T11:13:57.235Z,7.63
2024-02-20T11:21:06.852Z,7.31
2024-02-20T11:28:15.764Z,7.38
2024-02-20T11:35:29.019Z,7.57
2024-02-20T11:42:30.673Z,7.54
2024-02-20T11:49:35.017Z,7.41
2024-02-20T11:56:37.257Z,7.31
2024-02-20T12:03:39.351Z,7.45
2024-02-20T12:10:41.697Z,7.24
2024-02-20T12:17:47.053Z,7.49
2024-02-20T12:24:48.953Z,7.60
2024-02-20T12:31:50.676Z,7.38
2024-02-20T13:37:40.470Z,7.91
2024-02-20T13:44:42.126Z,7.98
2024-02-20T13:51:43.790Z,7.97
2024-02-20T13:58:45.892Z,8.02
2024-02-20T14:05:47.759Z,7.65
2024-02-20T14:12:49.450Z,7.82
2024-02-20T14:19:51.237Z,7.91
2024-02-20T14:26:52.999Z,7.98
2024-02-20T14:33:54.770Z,7.90
2024-02-20T14:40:56.664Z,7.92
2024-02-20T14:47:58.419Z,7.97
2024-02-20T14:55:00.060Z,7.78
2024-02-20T15:02:01.701Z,7.72
2024-02-20T15:09:03.515Z,7.84
2024-02-20T15:16:05.256Z,7.67
2024-02-20T15:23:06.888Z,7.79
2024-02-20T15:30:09.249Z,7.68
2024-02-20T16:41:03.178Z,7.48
2024-02-20T16:48:05.727Z,7.66
2024-02-20T16:55:07.735Z,7.73
2024-02-20T17:02:09.459Z,7.78
2024-02-20T17:09:11.097Z,7.68
2024-02-20T17:16:13.934Z,7.72
2024-02-20T17:23:17.246Z,7.73
2024-02-20T17:30:19.381Z,7.79
2024-02-20T17:37:21.005Z,7.80
2024-02-20T17:44:23.331Z,7.75
2024-02-20T17:51:27.979Z,7.72
2024-02-20T17:58:29.676Z,7.76
2024-02-20T18:05:31.428Z,7.72
2024-02-20T18:12:33.180Z,7.69
2024-02-20T18:19:35.355Z,7.64
2024-02-20T18:26:36.973Z,7.66
2024-02-20T18:33:38.600Z,7.66
2024-02-20T18:40:40.426Z,7.78
2024-02-20T18:47:42.403Z,7.71
2024-02-20T18:54:44.303Z,7.74
2024-02-20T19:01:49.665Z,7.61
2024-02-20T19:08:51.338Z,7.73
2024-02-20T19:15:52.934Z,7.61
2024-02-20T19:22:54.619Z,7.69
2024-02-20T19:29:57.675Z,7.72
2024-02-20T20:39:27.717Z,7.36
2024-02-20T20:46:29.628Z,7.22
2024-02-20T20:53:31.296Z,7.19
2024-02-20T21:00:37.744Z,7.29
2024-02-20T21:07:39.496Z,7.21
2024-02-20T21:14:41.512Z,7.17
2024-02-20T21:21:44.252Z,7.08
2024-02-20T21:28:46.743Z,7.16
2024-02-20T21:35:48.501Z,7.12
2024-02-20T21:42:50.155Z,7.28
2024-02-20T21:49:51.771Z,7.24
2024-02-20T21:56:53.486Z,7.32
2024-02-20T22:03:55.107Z,7.10
2024-02-20T22:10:59.435Z,7.19
2024-02-20T22:18:01.209Z,7.17
2024-02-20T22:25:02.814Z,7.07
2024-02-20T23:39:16.380Z,6.62
2024-02-20T23:46:17.843Z,6.81
2024-02-20T23:53:19.412Z,6.72
